^^
Station Historical Data
 
Daily Summary for July 23, 2014 Units:  English    Metric   Both
« Previous Day
Next Day »
Daily Weekly Monthly Yearly Custom
  Current: High: Low: Average:
Temperature: 81.0 °F 81.0 °F 69.1 °F 72.8 °F
Dew Point: 75.0 °F 75.3 °F 68.2 °F 70.7 °F
Humidity: 82% 98% 82% 93%
Wind Speed: 3.5mph 6.0mph 1.0mph 2.5mph
Wind Gust: 3.5mph 6.0mph - -
WindSSE - - SSE
Pressure: 29.88 in 29.98 in 29.88 in -
Precipitation: 0.00 in      
Historical Graphs
 
 
Tabular Data for July 23, 2014
Time Temperature Dew Point Pressure Wind Wind Speed Wind Gust Humidity Rainfall Rate (Hourly)
00:01 75.8 °F 71.3 °F 29.97 in South 3.5 mph 3.5 mph 86% 0.00 in
00:03 75.8 °F 71.3 °F 29.97 in South 6.0 mph 6.0 mph 86% 0.00 in
00:05 75.7 °F 71.6 °F 29.97 in SSW 3.5 mph 3.5 mph 87% 0.00 in
00:10 75.6 °F 71.5 °F 29.98 in South 3.5 mph 3.5 mph 87% 0.00 in
00:15 75.5 °F 71.4 °F 29.98 in South 2.3 mph 2.3 mph 87% 0.00 in
00:20 75.3 °F 71.2 °F 29.98 in South 1.2 mph 1.2 mph 87% 0.00 in
00:25 75.2 °F 71.1 °F 29.97 in Calm     87% 0.00 in
00:30 75.0 °F 71.2 °F 29.97 in Calm     88% 0.00 in
00:35 74.8 °F 71.0 °F 29.97 in Calm     88% 0.00 in
00:40 74.6 °F 70.8 °F 29.97 in Calm     88% 0.00 in
00:45 74.4 °F 70.6 °F 29.97 in Calm     88% 0.00 in
00:50 74.2 °F 70.7 °F 29.97 in Calm     89% 0.00 in
00:55 74.0 °F 70.6 °F 29.97 in Calm     89% 0.00 in
01:00 73.9 °F 70.8 °F 29.97 in Calm     90% 0.00 in
01:05 73.7 °F 70.6 °F 29.97 in Calm     90% 0.00 in
01:10 73.6 °F 70.5 °F 29.97 in Calm     90% 0.00 in
01:15 73.4 °F 70.6 °F 29.96 in Calm     91% 0.00 in
01:20 73.2 °F 70.4 °F 29.96 in Calm     91% 0.00 in
01:25 73.1 °F 70.3 °F 29.96 in Calm     91% 0.00 in
01:30 73.0 °F 70.5 °F 29.96 in Calm     92% 0.00 in
01:35 72.9 °F 70.4 °F 29.96 in Calm     92% 0.00 in
01:40 72.7 °F 70.2 °F 29.96 in Calm     92% 0.00 in
01:45 72.6 °F 70.1 °F 29.96 in Calm     92% 0.00 in
01:50 72.4 °F 69.9 °F 29.96 in Calm     92% 0.00 in
01:55 72.3 °F 70.2 °F 29.96 in Calm     93% 0.00 in
02:00 72.2 °F 70.1 °F 29.96 in Calm     93% 0.00 in
02:05 72.1 °F 70.0 °F 29.96 in Calm     93% 0.00 in
02:10 72.1 °F 70.3 °F 29.96 in South 1.2 mph   94% 0.00 in
02:15 72.1 °F 70.3 °F 29.96 in Calm     94% 0.00 in
02:20 72.1 °F 70.3 °F 29.95 in South 1.2 mph 1.2 mph 94% 0.00 in
02:25 72.1 °F 70.3 °F 29.95 in South 1.2 mph   94% 0.00 in
02:30 72.2 °F 70.4 °F 29.95 in South 2.3 mph 2.3 mph 94% 0.00 in
02:35 72.3 °F 70.8 °F 29.95 in South 3.5 mph 3.5 mph 95% 0.00 in
02:40 72.4 °F 70.6 °F 29.95 in South 1.2 mph 1.2 mph 94% 0.00 in
02:45 72.4 °F 70.6 °F 29.95 in Calm     94% 0.00 in
02:50 72.4 °F 70.6 °F 29.95 in Calm   0.1 mph 94% 0.00 in
02:55 72.4 °F 70.6 °F 29.95 in Calm     94% 0.00 in
03:00 72.4 °F 70.6 °F 29.94 in South 1.2 mph   94% 0.00 in
03:05 72.3 °F 70.5 °F 29.94 in South 1.2 mph 1.2 mph 94% 0.00 in
03:10 72.3 °F 70.5 °F 29.93 in South 2.3 mph 2.3 mph 94% 0.00 in
03:15 72.3 °F 70.5 °F 29.93 in South 2.3 mph 2.3 mph 94% 0.00 in
03:20 72.4 °F 70.6 °F 29.93 in South 1.0 mph   94% 0.00 in
03:25 72.4 °F 70.6 °F 29.93 in South 2.3 mph 2.3 mph 94% 0.00 in
03:30 72.3 °F 70.5 °F 29.93 in South 1.2 mph   94% 0.00 in
03:35 72.2 °F 70.4 °F 29.93 in Calm     94% 0.00 in
03:40 72.1 °F 70.3 °F 29.93 in Calm     94% 0.00 in
03:45 72.1 °F 70.3 °F 29.93 in Calm     94% 0.00 in
03:50 71.9 °F 70.1 °F 29.93 in Calm     94% 0.00 in
03:55 71.7 °F 69.9 °F 29.92 in Calm     94% 0.00 in
04:00 71.6 °F 69.8 °F 29.92 in Calm     94% 0.00 in
04:05 71.4 °F 69.9 °F 29.92 in Calm     95% 0.00 in
04:10 71.3 °F 69.8 °F 29.92 in Calm     95% 0.00 in
04:15 71.2 °F 69.7 °F 29.92 in Calm     95% 0.00 in
04:20 71.0 °F 69.5 °F 29.92 in Calm     95% 0.00 in
04:25 70.8 °F 69.3 °F 29.91 in Calm     95% 0.00 in
04:30 70.7 °F 69.2 °F 29.92 in Calm     95% 0.00 in
04:35 70.6 °F 69.1 °F 29.92 in Calm     95% 0.00 in
04:40 70.5 °F 69.3 °F 29.92 in Calm     96% 0.00 in
04:45 70.4 °F 69.2 °F 29.91 in Calm     96% 0.00 in
04:50 70.3 °F 69.1 °F 29.91 in Calm     96% 0.00 in
04:55 70.2 °F 69.0 °F 29.91 in Calm     96% 0.00 in
05:00 70.1 °F 68.9 °F 29.91 in Calm     96% 0.00 in
05:05 70.0 °F 68.8 °F 29.91 in Calm     96% 0.00 in
05:10 69.9 °F 68.7 °F 29.91 in Calm     96% 0.00 in
05:15 69.8 °F 68.6 °F 29.90 in Calm     96% 0.00 in
05:20 69.7 °F 68.8 °F 29.90 in South 1.2 mph   97% 0.00 in
05:25 69.7 °F 68.8 °F 29.90 in Calm     97% 0.00 in
05:30 69.7 °F 68.8 °F 29.90 in Calm     97% 0.00 in
05:35 69.7 °F 68.8 °F 29.90 in Calm     97% 0.00 in
05:40 69.7 °F 68.8 °F 29.90 in Calm     97% 0.00 in
05:45 69.6 °F 68.7 °F 29.90 in Calm     97% 0.00 in
05:50 69.5 °F 68.6 °F 29.90 in Calm     97% 0.00 in
05:55 69.4 °F 68.5 °F 29.91 in SE 1.2 mph   97% 0.00 in
06:00 69.3 °F 68.4 °F 29.91 in Calm     97% 0.00 in
06:05 69.2 °F 68.3 °F 29.91 in Calm     97% 0.00 in
06:10 69.2 °F 68.3 °F 29.91 in Calm     97% 0.00 in
06:15 69.2 °F 68.3 °F 29.91 in Calm     97% 0.00 in
06:20 69.1 °F 68.2 °F 29.91 in Calm     97% 0.00 in
06:25 69.1 °F 68.5 °F 29.91 in Calm     98% 0.00 in
06:30 69.2 °F 68.6 °F 29.91 in Calm     98% 0.00 in
06:35 69.2 °F 68.6 °F 29.91 in Calm     98% 0.00 in
06:40 69.3 °F 68.7 °F 29.92 in Calm     98% 0.00 in
06:45 69.4 °F 68.8 °F 29.92 in Calm     98% 0.00 in
06:50 69.4 °F 68.8 °F 29.92 in Calm     98% 0.00 in
06:55 69.5 °F 68.9 °F 29.93 in Calm     98% 0.00 in
07:00 69.6 °F 69.0 °F 29.92 in Calm     98% 0.00 in
07:05 69.8 °F 69.2 °F 29.93 in Calm     98% 0.00 in
07:11 70.1 °F 69.5 °F 29.93 in Calm     98% 0.00 in
07:16 70.3 °F 69.7 °F 29.93 in Calm     98% 0.00 in
07:21 70.5 °F 69.9 °F 29.93 in Calm     98% 0.00 in
07:26 70.7 °F 70.1 °F 29.93 in Calm     98% 0.00 in
07:31 70.8 °F 70.2 °F 29.93 in Calm     98% 0.00 in
07:36 71.2 °F 70.6 °F 29.93 in ESE 1.2 mph   98% 0.00 in
07:41 71.3 °F 70.7 °F 29.93 in ESE 2.3 mph   98% 0.00 in
07:46 71.7 °F 71.1 °F 29.93 in ESE 2.3 mph 2.3 mph 98% 0.00 in
07:51 72.0 °F 71.4 °F 29.92 in ESE 1.2 mph 1.2 mph 98% 0.00 in
07:56 72.3 °F 71.4 °F 29.92 in ESE 2.0 mph 2.0 mph 97% 0.00 in
08:01 72.7 °F 71.8 °F 29.92 in SE 3.5 mph 3.5 mph 97% 0.00 in
08:06 72.9 °F 71.7 °F 29.92 in SE 1.2 mph 1.2 mph 96% 0.00 in
08:11 73.3 °F 72.1 °F 29.91 in SE 1.2 mph 1.2 mph 96% 0.00 in
08:16 73.9 °F 72.7 °F 29.91 in SE 3.5 mph 3.5 mph 96% 0.00 in
08:21 74.2 °F 72.4 °F 29.91 in SE 3.5 mph 3.5 mph 94% 0.00 in
08:26 74.5 °F 72.3 °F 29.91 in SSW 3.5 mph 3.5 mph 93% 0.00 in
08:31 75.0 °F 73.2 °F 29.90 in South 4.0 mph 4.0 mph 94% 0.00 in
08:36 75.6 °F 73.1 °F 29.91 in South 1.2 mph 1.2 mph 92% 0.00 in
08:41 76.2 °F 73.7 °F 29.90 in Calm     92% 0.00 in
08:46 76.6 °F 73.8 °F 29.90 in South 3.5 mph 3.5 mph 91% 0.00 in
08:51 77.1 °F 73.9 °F 29.90 in South 3.5 mph 3.5 mph 90% 0.00 in
08:56 77.7 °F 74.2 °F 29.90 in South 3.5 mph 3.5 mph 89% 0.00 in
09:01 78.0 °F 74.5 °F 29.90 in South 1.2 mph 1.2 mph 89% 0.00 in
09:06 78.2 °F 74.4 °F 29.90 in South 2.3 mph 2.3 mph 88% 0.00 in
09:11 78.7 °F 74.5 °F 29.89 in South 2.3 mph 2.3 mph 87% 0.00 in
09:16 79.0 °F 74.5 °F 29.90 in South 2.3 mph 2.3 mph 86% 0.00 in
09:21 79.2 °F 74.6 °F 29.89 in South 2.3 mph 2.3 mph 86% 0.00 in
09:26 79.6 °F 75.0 °F 29.89 in South 2.3 mph 2.3 mph 86% 0.00 in
09:31 79.9 °F 75.3 °F 29.89 in SSE 4.6 mph 4.6 mph 86% 0.00 in
09:36 80.1 °F 74.8 °F 29.89 in South 2.3 mph 2.3 mph 84% 0.00 in
09:41 80.4 °F 74.8 °F 29.89 in SSE 5.0 mph 5.0 mph 83% 0.00 in
09:46 80.6 °F 75.3 °F 29.89 in South 4.0 mph 4.0 mph 84% 0.00 in
09:51 80.7 °F 75.1 °F 29.88 in South 4.6 mph 4.6 mph 83% 0.00 in
09:56 81.0 °F 75.0 °F 29.88 in SSE 3.5 mph 3.5 mph 82% 0.00 in
Mechanicsburg,PA USA
Compliments of Weather Underground